KGAG/GAG METAR and TAF weather

Enter ICAO airport designator
Station Type Date Time Source
KGAG METAR 2022/06/25 23:53 UTC NOAA

KGAG 252353Z AUTO 02017G26KT 10SM CLR 33/17 A3002 RMK AO2 PK WND 01029/2315 LTG DSNT S AND SW SLP133 T03280167 10372 20322 53002


Station Type Date Time Source
KGAG Decoded METAR 2022/06/25 23:53 UTC NOAA

GAGE AIRPORT, OK, United States (KGAG) 36-18N 99-46W 668M
Jun 25, 2022 - 07:53 PM EDT / 2022.06.25 2353 UTC
Wind: from the NNE (020 degrees) at 20 MPH (17 KT) gusting to 30 MPH (26 KT):0
Visibility: 10 mile(s):0
Sky conditions: clear
Weather: Lightning observed
Temperature: 91.0 F (32.8 C)
Dew Point: 62.1 F (16.7 C)
Relative Humidity: 38%
Pressure (altimeter): 30.02 in. Hg (1016 hPa)
Pressure tendency: 0.01 inches (0.2 hPa) higher than three hours ago
ob: KGAG 252353Z AUTO 02017G26KT 10SM CLR 33/17 A3002 RMK AO2 PK WND 01029/2315 LTG DSNT S AND SW SLP133 T03280167 10372 20322 53002
cycle: 0

Station Type Date Time Source
KGAG TAF 2018/03/21 06:22 UTC NOAA

TAF KGAG 210520Z 2106/2206 VRB04KT P6SM SCT250
FM211300 16008KT P6SM SCT250
FM211800 18012G22KT P6SM BKN250

Example: see airport list